Time;durP1;ratioP1;P1;durP2;ratioP2;P2;SDS_P1;SDS_P2;PMS_P1;PMS_P2;Temp;Humidity;BMP_temperature;BMP_pressure;BME280_temperature;BME280_humidity;BME280_pressure;Samples;Min_cycle;Max_cycle;Signal;HPM_P1;HPM_P2
2022/12/03 00:01:53;;;;;;;16.75;15.23;;;11.30;82.10;;;;;;5035278;28;20469;-82
2022/12/03 00:04:19;;;;;;;18.77;17.17;;;11.30;82.10;;;;;;5037569;28;20108;-81
2022/12/03 00:06:44;;;;;;;16.80;15.25;;;11.20;82.10;;;;;;5038534;28;20026;-83
2022/12/03 00:09:10;;;;;;;17.02;15.55;;;11.20;82.10;;;;;;5040489;28;20059;-83
2022/12/03 00:11:35;;;;;;;17.63;16.10;;;11.30;82.20;;;;;;5040168;28;20029;-83
2022/12/03 00:14:01;;;;;;;17.48;15.77;;;11.20;82.10;;;;;;5039945;28;20036;-82
2022/12/03 00:16:27;;;;;;;17.45;15.85;;;11.30;82.10;;;;;;5040630;28;20026;-82
2022/12/03 00:18:52;;;;;;;16.83;15.32;;;11.30;82.10;;;;;;5039649;28;20038;-83
2022/12/03 00:21:18;;;;;;;16.63;15.13;;;11.30;82.20;;;;;;5040247;28;20029;-82
2022/12/03 00:23:43;;;;;;;16.85;15.25;;;11.20;82.10;;;;;;5038873;28;20481;-81
2022/12/03 00:26:09;;;;;;;16.42;14.93;;;11.30;82.10;;;;;;5037982;28;20036;-81
2022/12/03 00:28:34;;;;;;;17.85;16.25;;;11.20;82.00;;;;;;5037377;28;20029;-82
2022/12/03 00:31:00;;;;;;;21.25;15.15;;;11.30;82.10;;;;;;5037738;28;20033;-82
2022/12/03 00:33:25;;;;;;;15.85;14.43;;;11.30;82.40;;;;;;5036716;28;20026;-83
2022/12/03 00:35:51;;;;;;;15.48;14.13;;;11.30;82.50;;;;;;5038336;28;20037;-82
2022/12/03 00:38:16;;;;;;;16.75;15.20;;;11.30;82.30;;;;;;5036216;28;20049;-82
2022/12/03 00:40:42;;;;;;;16.02;14.57;;;11.30;82.20;;;;;;5036731;28;20025;-82
2022/12/03 00:43:07;;;;;;;15.82;14.32;;;11.30;82.20;;;;;;5036740;28;20024;-82
2022/12/03 00:45:33;;;;;;;16.45;14.95;;;11.30;82.10;;;;;;5036503;28;20090;-83
2022/12/03 00:47:58;;;;;;;17.85;16.35;;;11.30;81.90;;;;;;5038861;28;20395;-82
2022/12/03 00:50:24;;;;;;;16.25;14.82;;;11.40;82.00;;;;;;5038041;28;20036;-81
2022/12/03 00:52:49;;;;;;;16.85;15.30;;;11.40;81.90;;;;;;5040530;28;20546;-81
2022/12/03 00:55:15;;;;;;;16.45;15.00;;;11.40;81.80;;;;;;5038713;28;20404;-82
2022/12/03 00:57:41;;;;;;;17.40;15.80;;;11.40;81.90;;;;;;5033996;28;20051;-82
2022/12/03 01:00:08;;;;;;;16.42;14.90;;;11.30;81.90;;;;;;5036297;28;20048;-82
2022/12/03 01:02:34;;;;;;;16.60;15.10;;;11.30;82.00;;;;;;5038279;28;20442;-81
2022/12/03 01:04:59;;;;;;;16.27;14.77;;;11.30;81.90;;;;;;5040790;28;20056;-82
2022/12/03 01:07:25;;;;;;;16.05;14.55;;;11.30;82.10;;;;;;5038854;28;20079;-81
2022/12/03 01:09:51;;;;;;;16.83;15.32;;;11.30;82.10;;;;;;5021315;28;20445;-82
2022/12/03 01:12:16;;;;;;;15.63;14.23;;;11.30;82.10;;;;;;5038346;28;20048;-81
2022/12/03 01:14:42;;;;;;;16.92;15.40;;;11.30;82.10;;;;;;5039399;28;20071;-81
2022/12/03 01:17:07;;;;;;;16.52;14.93;;;11.30;82.10;;;;;;5038088;28;20492;-80
2022/12/03 01:19:34;;;;;;;15.40;14.00;;;11.30;82.10;;;;;;5039039;28;20021;-81
2022/12/03 01:22:00;;;;;;;17.08;15.48;;;11.20;82.00;;;;;;5037960;28;20393;-81
2022/12/03 01:24:26;;;;;;;16.65;15.15;;;11.20;82.10;;;;;;5039492;28;20056;-81
2022/12/03 01:26:52;;;;;;;17.00;15.50;;;11.20;82.00;;;;;;5037102;28;20022;-82
2022/12/03 01:29:18;;;;;;;16.80;15.27;;;11.20;82.10;;;;;;5035237;28;20029;-81
2022/12/03 01:34:27;;;;;;;16.27;14.77;;;11.20;82.00;;;;;;5037427;28;20040;-81
2022/12/03 01:36:53;;;;;;;15.82;14.32;;;11.20;82.10;;;;;;5036608;28;20029;-81
2022/12/03 01:39:19;;;;;;;16.05;14.60;;;11.20;82.00;;;;;;5035074;28;20087;-81
2022/12/03 01:41:46;;;;;;;15.85;14.45;;;11.20;82.00;;;;;;5036444;28;20033;-81
2022/12/03 01:44:24;;;;;;;16.40;14.90;;;11.20;82.00;;;;;;5036454;28;20518;-82
2022/12/03 01:46:51;;;;;;;15.57;14.18;;;11.20;82.10;;;;;;5037530;28;20032;-82
2022/12/03 01:49:21;;;;;;;16.63;15.10;;;11.20;82.00;;;;;;5037993;28;20045;-81
2022/12/03 01:51:48;;;;;;;15.80;14.38;;;11.20;82.00;;;;;;5034871;28;20056;-83
2022/12/03 01:54:18;;;;;;;16.42;14.93;;;11.20;82.00;;;;;;5035475;28;20029;-81
2022/12/03 01:56:44;;;;;;;16.80;15.20;;;11.20;82.00;;;;;;5035550;28;20519;-81
2022/12/03 01:59:18;;;;;;;15.85;14.45;;;11.20;82.00;;;;;;5034779;28;20397;-83
2022/12/03 02:01:44;;;;;;;15.43;14.02;;;11.20;82.00;;;;;;5034451;28;20099;-82
2022/12/03 02:04:13;;;;;;;16.58;14.93;;;11.20;82.00;;;;;;5033467;28;20021;-82
2022/12/03 02:06:40;;;;;;;16.83;15.27;;;11.20;82.00;;;;;;5035774;28;20025;-83
2022/12/03 02:09:08;;;;;;;15.63;14.13;;;11.20;82.00;;;;;;5033785;28;20036;-81
2022/12/03 02:11:40;;;;;;;17.33;15.63;;;11.20;81.90;;;;;;5032687;28;20033;-80
2022/12/03 02:14:10;;;;;;;15.90;14.38;;;11.20;82.00;;;;;;5034140;28;20072;-81
2022/12/03 02:16:38;;;;;;;15.98;14.48;;;11.20;82.00;;;;;;5035051;28;20091;-81
2022/12/03 02:19:12;;;;;;;16.40;14.90;;;11.20;82.00;;;;;;5034224;28;20233;-81
2022/12/03 02:21:59;;;;;;;16.10;14.60;;;11.20;82.10;;;;;;5033230;28;20037;-82
2022/12/03 02:24:45;;;;;;;15.43;13.93;;;11.20;81.90;;;;;;5033652;28;20041;-83
2022/12/03 02:27:11;;;;;;;16.08;14.57;;;11.20;81.90;;;;;;5035549;28;20382;-82
2022/12/03 02:29:37;;;;;;;14.68;13.32;;;11.20;81.90;;;;;;5033152;28;20039;-82
2022/12/03 02:32:02;;;;;;;15.90;14.30;;;11.20;81.90;;;;;;5033448;28;20036;-82
2022/12/03 02:34:43;;;;;;;16.65;15.10;;;11.20;81.90;;;;;;5034224;28;20378;-81
2022/12/03 02:37:13;;;;;;;15.60;14.05;;;11.20;81.80;;;;;;5034114;28;20022;-83
2022/12/03 02:39:43;;;;;;;15.80;14.32;;;11.20;81.90;;;;;;5035545;28;20116;-83
2022/12/03 02:44:53;;;;;;;16.63;15.02;;;11.20;81.80;;;;;;5035303;28;20054;-82
2022/12/03 02:47:20;;;;;;;16.30;14.80;;;11.20;81.90;;;;;;5046549;28;20033;-82
2022/12/03 02:49:46;;;;;;;16.73;15.23;;;11.20;82.10;;;;;;5040631;28;20030;-83
2022/12/03 02:52:11;;;;;;;17.17;15.65;;;11.20;82.10;;;;;;5041761;28;20036;-83
2022/12/03 02:54:37;;;;;;;16.80;15.20;;;11.20;82.10;;;;;;5040893;28;20030;-82
2022/12/03 02:57:03;;;;;;;16.20;14.60;;;11.30;82.10;;;;;;5040199;28;20463;-83
2022/12/03 02:59:29;;;;;;;16.90;15.35;;;11.30;82.00;;;;;;5042646;28;20493;-80
2022/12/03 03:01:54;;;;;;;16.75;15.13;;;11.30;81.80;;;;;;5041253;28;20061;-82
2022/12/03 03:04:23;;;;;;;15.70;14.25;;;11.30;81.70;;;;;;5035907;28;20466;-81
2022/12/03 03:06:49;;;;;;;17.02;15.43;;;11.30;81.80;;;;;;5028526;28;20073;-82
2022/12/03 03:09:15;;;;;;;17.02;15.43;;;11.30;81.60;;;;;;5019463;28;20061;-83
2022/12/03 03:11:40;;;;;;;16.65;15.07;;;11.30;81.60;;;;;;5020479;28;20462;-82
2022/12/03 03:14:06;;;;;;;16.45;14.95;;;11.30;81.60;;;;;;5018651;28;20048;-81
2022/12/03 03:16:33;;;;;;;16.48;14.98;;;11.30;81.60;;;;;;5011464;28;20037;-82
2022/12/03 03:18:59;;;;;;;17.10;15.43;;;11.30;81.70;;;;;;5027517;28;20033;-81
2022/12/03 03:21:24;;;;;;;16.60;15.00;;;11.30;81.80;;;;;;5036652;28;20025;-82
2022/12/03 03:23:50;;;;;;;17.27;15.77;;;11.20;81.70;;;;;;5040964;28;20028;-82
2022/12/03 03:26:15;;;;;;;16.45;14.95;;;11.20;81.80;;;;;;5041582;28;20071;-81
2022/12/03 03:28:44;;;;;;;16.25;14.65;;;11.20;81.80;;;;;;5039535;28;20037;-81
2022/12/03 03:31:12;;;;;;;17.00;15.45;;;11.20;81.80;;;;;;5038728;28;20132;-82
2022/12/03 03:33:40;;;;;;;15.27;13.77;;;11.20;81.90;;;;;;5039066;28;20116;-81
2022/12/03 03:36:06;;;;;;;16.63;15.02;;;11.20;81.90;;;;;;5034606;28;20473;-81
2022/12/03 03:38:32;;;;;;;16.42;14.88;;;11.20;81.90;;;;;;5036076;28;20033;-81
2022/12/03 03:41:02;;;;;;;17.27;15.75;;;11.20;81.80;;;;;;5039261;28;20032;-81
2022/12/03 03:43:29;;;;;;;17.13;15.52;;;11.20;81.90;;;;;;5035208;28;20496;-81
2022/12/03 03:45:55;;;;;;;16.15;14.63;;;11.20;81.80;;;;;;5031213;28;20025;-81
2022/12/03 03:48:21;;;;;;;18.05;16.25;;;11.20;81.90;;;;;;5038146;28;20025;-81
2022/12/03 03:50:49;;;;;;;17.02;15.38;;;11.20;81.80;;;;;;5040741;28;20294;-82
2022/12/03 03:53:15;;;;;;;16.98;15.38;;;11.20;81.80;;;;;;5042948;28;20542;-82
2022/12/03 03:55:41;;;;;;;17.17;15.48;;;11.20;81.80;;;;;;5042581;28;20021;-82
2022/12/03 03:58:07;;;;;;;16.88;15.18;;;11.20;81.70;;;;;;5042061;28;20460;-82
2022/12/03 04:00:34;;;;;;;16.88;15.30;;;11.20;81.70;;;;;;5042161;28;20034;-82
2022/12/03 04:03:00;;;;;;;17.23;15.52;;;11.20;81.70;;;;;;5041505;28;20093;-82
2022/12/03 04:05:26;;;;;;;17.58;15.88;;;11.20;81.70;;;;;;5041830;28;20656;-81
2022/12/03 04:07:52;;;;;;;16.73;15.02;;;11.20;81.70;;;;;;5041007;28;20179;-81
2022/12/03 04:12:54;;;;;;;16.48;14.88;;;11.20;81.70;;;;;;5040672;28;20115;-82
2022/12/03 04:13:04;;;;;;;17.25;15.52;;;11.20;81.80;;;;;;5041391;28;20117;-82
2022/12/03 04:15:29;;;;;;;16.80;15.20;;;11.20;81.70;;;;;;5041281;28;20032;-81
2022/12/03 04:20:40;;;;;;;16.60;14.90;;;11.20;81.70;;;;;;5041379;28;20052;-81
2022/12/03 04:23:06;;;;;;;15.82;14.23;;;11.20;81.70;;;;;;5042983;28;20014;-82
2022/12/03 04:35:41;;;;;;;16.52;14.82;;;11.20;81.60;;;;;;5040005;28;20056;-81
2022/12/03 04:36:30;;;;;;;16.33;14.73;;;11.20;81.60;;;;;;5043208;28;20040;-81
2022/12/03 04:38:55;;;;;;;16.52;14.85;;;11.20;81.60;;;;;;5043366;28;20529;-81
2022/12/03 04:41:21;;;;;;;16.92;15.13;;;11.20;81.60;;;;;;5038157;28;20550;-82
2022/12/03 04:46:30;;;;;;;15.77;14.18;;;11.20;81.60;;;;;;5042869;28;20028;-82
2022/12/03 04:48:56;;;;;;;17.02;15.32;;;11.20;81.60;;;;;;5041951;28;20565;-81
2022/12/03 04:51:21;;;;;;;16.77;15.07;;;11.20;81.60;;;;;;5039340;28;20493;-81
2022/12/03 04:53:47;;;;;;;16.83;15.13;;;11.20;81.50;;;;;;5035770;28;20034;-80
2022/12/03 04:56:12;;;;;;;17.20;15.55;;;11.20;81.60;;;;;;5037554;28;20030;-81
2022/12/03 04:58:38;;;;;;;16.60;14.95;;;11.20;81.60;;;;;;5040087;28;20041;-82
2022/12/03 05:01:03;;;;;;;17.10;15.40;;;11.20;81.60;;;;;;5038721;28;20048;-81
2022/12/03 05:03:29;;;;;;;17.17;15.38;;;11.20;81.60;;;;;;5041622;28;20026;-81
2022/12/03 05:05:54;;;;;;;15.65;14.05;;;11.20;81.50;;;;;;5042085;28;20052;-81
2022/12/03 05:08:20;;;;;;;16.73;15.02;;;11.10;81.60;;;;;;5041418;28;20028;-82
2022/12/03 05:10:45;;;;;;;16.48;14.88;;;11.20;81.80;;;;;;5039080;28;20822;-81
2022/12/03 05:13:11;;;;;;;16.85;15.25;;;11.20;81.80;;;;;;5040665;28;20030;-81
2022/12/03 05:15:36;;;;;;;17.55;15.90;;;11.20;81.90;;;;;;5041221;28;20029;-81
2022/12/03 05:18:02;;;;;;;16.58;14.88;;;11.20;81.80;;;;;;5036037;28;20026;-80
2022/12/03 05:20:42;;;;;;;16.20;14.60;;;11.30;81.60;;;;;;5038807;28;20033;-81
2022/12/03 05:23:12;;;;;;;16.02;14.38;;;11.20;81.60;;;;;;5038590;28;20116;-81
2022/12/03 05:25:39;;;;;;;15.95;14.45;;;11.30;81.50;;;;;;5040946;28;20508;-83
2022/12/03 05:28:05;;;;;;;16.42;14.82;;;11.30;81.60;;;;;;5049364;28;20071;-83
2022/12/03 05:30:31;;;;;;;17.42;15.75;;;11.30;81.50;;;;;;5049140;28;20101;-83
2022/12/03 05:32:57;;;;;;;17.17;15.55;;;11.30;81.30;;;;;;5046637;28;20056;-83
2022/12/03 05:35:22;;;;;;;17.60;15.80;;;11.30;81.20;;;;;;5046290;28;20021;-83
2022/12/03 05:37:48;;;;;;;17.25;15.65;;;11.20;81.20;;;;;;5045868;28;20034;-82
2022/12/03 05:40:13;;;;;;;17.13;15.43;;;11.20;81.30;;;;;;5046018;28;20559;-82
2022/12/03 05:42:55;;;;;;;16.92;15.23;;;11.20;81.30;;;;;;5044588;28;20029;-81
2022/12/03 05:45:34;;;;;;;16.30;14.60;;;11.20;81.50;;;;;;5042486;28;20026;-82
2022/12/03 05:48:00;;;;;;;16.67;14.93;;;11.20;81.50;;;;;;5033188;28;20022;-82
2022/12/03 05:50:29;;;;;;;16.83;15.18;;;11.20;81.60;;;;;;5034925;28;20511;-81
2022/12/03 05:52:56;;;;;;;17.17;15.55;;;11.20;81.50;;;;;;5041839;28;20025;-81
2022/12/03 05:55:22;;;;;;;18.40;16.50;;;11.10;81.40;;;;;;5042369;28;20026;-82
2022/12/03 05:57:47;;;;;;;17.00;15.30;;;11.20;81.50;;;;;;5043298;28;20056;-81
2022/12/03 06:00:36;;;;;;;17.50;15.80;;;11.10;81.50;;;;;;5039145;28;20017;-81
2022/12/03 06:03:04;;;;;;;17.45;15.65;;;11.10;81.40;;;;;;5034951;28;20464;-80
2022/12/03 06:05:29;;;;;;;16.45;14.82;;;11.10;81.50;;;;;;5035471;28;20572;-80
2022/12/03 06:07:55;;;;;;;18.75;16.77;;;11.20;81.70;;;;;;5038005;28;20045;-80
2022/12/03 06:10:23;;;;;;;16.98;15.23;;;11.20;81.70;;;;;;5039821;28;20489;-80
2022/12/03 06:12:48;;;;;;;18.17;16.38;;;11.10;81.70;;;;;;5041711;28;20044;-81
2022/12/03 06:15:14;;;;;;;17.15;15.45;;;11.10;81.70;;;;;;5023226;28;20497;-76
2022/12/03 06:17:40;;;;;;;18.15;15.95;;;11.10;81.40;;;;;;5037559;28;20040;-81
2022/12/03 06:20:08;;;;;;;17.27;15.60;;;11.10;81.30;;;;;;5036816;28;20436;-77
2022/12/03 06:22:34;;;;;;;16.70;15.00;;;11.10;81.30;;;;;;5040863;28;20052;-81
2022/12/03 06:24:59;;;;;;;19.02;17.13;;;11.10;81.30;;;;;;5041293;28;20444;-81
2022/12/03 06:27:25;;;;;;;17.65;15.85;;;11.10;81.30;;;;;;5029025;28;20079;-81
2022/12/03 06:29:50;;;;;;;17.25;15.55;;;11.10;81.30;;;;;;5033232;28;20041;-77
2022/12/03 06:32:16;;;;;;;17.52;15.73;;;11.10;81.30;;;;;;5028239;28;20030;-81
2022/12/03 06:34:42;;;;;;;16.63;14.85;;;11.10;81.30;;;;;;5042354;28;20035;-82
2022/12/03 06:37:07;;;;;;;17.67;15.88;;;11.10;81.20;;;;;;5042331;28;20026;-81
2022/12/03 06:39:33;;;;;;;17.85;16.05;;;11.10;81.20;;;;;;5031368;28;20034;-80
2022/12/03 06:41:58;;;;;;;17.00;15.30;;;11.10;81.20;;;;;;5039548;28;20018;-81
2022/12/03 06:44:24;;;;;;;18.55;16.65;;;11.10;81.20;;;;;;5036397;28;20493;-81
2022/12/03 06:46:49;;;;;;;16.77;15.18;;;11.10;81.20;;;;;;5042850;28;20497;-81
2022/12/03 06:49:15;;;;;;;17.73;15.93;;;11.10;81.20;;;;;;5038296;28;20025;-81
2022/12/03 06:51:41;;;;;;;17.23;15.50;;;11.10;81.30;;;;;;5035533;28;20025;-81
2022/12/03 06:54:06;;;;;;;18.00;16.13;;;11.10;81.20;;;;;;5037369;28;20034;-81
2022/12/03 06:56:33;;;;;;;19.23;16.17;;;11.10;81.10;;;;;;5024622;28;20022;-80
2022/12/03 06:58:58;;;;;;;17.33;15.43;;;11.10;81.10;;;;;;5034232;28;20037;-80
2022/12/03 07:01:24;;;;;;;18.02;16.20;;;11.10;81.00;;;;;;5028115;28;20076;-79
2022/12/03 07:03:49;;;;;;;17.38;15.68;;;11.10;81.00;;;;;;5029452;28;20570;-81
2022/12/03 07:06:15;;;;;;;17.80;16.00;;;11.10;81.00;;;;;;5035766;28;20088;-81
2022/12/03 07:08:40;;;;;;;18.27;16.27;;;11.10;81.00;;;;;;5037941;28;20675;-81
2022/12/03 07:11:29;;;;;;;18.20;16.40;;;11.10;81.00;;;;;;5035859;28;20033;-81
2022/12/03 07:13:52;;;;;;;18.85;16.95;;;11.10;80.90;;;;;;5016160;28;20496;-80
2022/12/03 07:16:17;;;;;;;17.95;16.10;;;11.10;80.90;;;;;;5014637;28;20033;-83
2022/12/03 07:18:43;;;;;;;19.58;17.58;;;11.10;80.90;;;;;;5019298;28;20032;-80
2022/12/03 07:21:09;;;;;;;19.52;17.52;;;11.10;80.90;;;;;;5025958;28;20113;-83
2022/12/03 07:23:34;;;;;;;17.70;15.90;;;11.10;80.90;;;;;;5028496;28;20130;-82
2022/12/03 07:26:00;;;;;;;17.55;15.75;;;11.10;81.00;;;;;;5034804;28;20112;-82
2022/12/03 07:28:25;;;;;;;17.27;15.45;;;11.10;81.10;;;;;;5027203;28;20646;-81
2022/12/03 07:30:51;;;;;;;18.80;16.85;;;11.10;81.10;;;;;;5025023;28;20038;-83
2022/12/03 07:33:16;;;;;;;18.58;16.63;;;11.10;80.80;;;;;;5036676;28;20078;-82
2022/12/03 07:35:42;;;;;;;19.55;17.55;;;11.10;81.00;;;;;;5037495;28;20053;-81
2022/12/03 07:38:07;;;;;;;17.33;15.48;;;11.10;81.00;;;;;;5033344;28;20029;-80
2022/12/03 07:40:33;;;;;;;18.65;16.75;;;11.10;81.00;;;;;;5036735;28;20485;-80
2022/12/03 07:42:58;;;;;;;18.52;16.35;;;11.10;81.00;;;;;;5021448;28;20033;-80
2022/12/03 07:45:24;;;;;;;17.85;16.05;;;11.20;81.00;;;;;;5025996;28;20022;-81
2022/12/03 07:47:49;;;;;;;17.88;15.93;;;11.20;80.90;;;;;;5029719;28;20014;-82
2022/12/03 07:50:15;;;;;;;17.23;15.15;;;11.20;81.00;;;;;;5022004;28;20037;-80
2022/12/03 07:52:40;;;;;;;17.33;15.60;;;11.20;80.90;;;;;;5023166;28;20034;-80
2022/12/03 07:55:06;;;;;;;17.55;15.68;;;11.20;81.00;;;;;;5017929;28;20449;-82
2022/12/03 07:57:32;;;;;;;17.80;15.90;;;11.20;81.00;;;;;;5019422;28;20529;-82
2022/12/03 07:59:57;;;;;;;17.65;15.85;;;11.20;80.90;;;;;;5018253;28;20049;-80
2022/12/03 08:02:23;;;;;;;18.60;16.60;;;11.20;80.90;;;;;;5035470;28;20030;-80
2022/12/03 08:04:48;;;;;;;18.67;16.77;;;11.20;80.90;;;;;;5035022;28;20025;-82
2022/12/03 08:07:14;;;;;;;17.60;15.80;;;11.20;80.90;;;;;;5039142;28;20086;-82
2022/12/03 08:09:40;;;;;;;19.48;17.48;;;11.10;81.00;;;;;;5039405;28;20029;-81
2022/12/03 08:12:40;;;;;;;18.15;16.25;;;11.10;81.20;;;;;;5035362;28;20030;-82
2022/12/03 08:15:12;;;;;;;18.30;16.17;;;11.10;81.20;;;;;;5018526;28;20079;-81
2022/12/03 08:17:39;;;;;;;;;;;11.10;81.20;;;;;;5014280;28;20129;-81
2022/12/03 08:20:17;;;;;;;16.00;14.32;;;11.10;81.30;;;;;;5030784;28;19948;-81
2022/12/03 08:22:44;;;;;;;17.52;15.73;;;11.10;81.30;;;;;;5040998;28;20500;-82
2022/12/03 08:25:23;;;;;;;18.10;16.13;;;11.10;81.30;;;;;;5038994;28;20113;-81
2022/12/03 08:27:50;;;;;;;17.35;15.55;;;11.10;81.40;;;;;;5037016;28;20061;-81
2022/12/03 08:30:16;;;;;;;17.83;15.98;;;11.10;81.40;;;;;;5031576;28;20018;-81
2022/12/03 08:32:42;;;;;;;17.08;15.23;;;11.10;81.30;;;;;;5035891;28;20108;-82
2022/12/03 08:35:11;;;;;;;18.05;16.17;;;11.10;81.30;;;;;;5029459;28;20107;-80
2022/12/03 08:37:37;;;;;;;18.65;16.75;;;11.10;81.30;;;;;;5035489;28;20051;-80
2022/12/03 08:40:22;;;;;;;17.40;15.60;;;11.10;81.30;;;;;;5036393;28;20565;-81
2022/12/03 08:42:48;;;;;;;17.40;15.25;;;11.10;81.30;;;;;;5031511;28;20080;-80
2022/12/03 08:45:23;;;;;;;19.13;16.92;;;11.10;81.30;;;;;;5037658;28;20029;-81
2022/12/03 08:47:48;;;;;;;16.70;14.90;;;11.10;81.30;;;;;;5037690;28;20109;-80
2022/12/03 08:50:40;;;;;;;15.80;11.50;;;11.00;81.20;;;;;;5034035;28;20053;-77
2022/12/03 08:53:12;;;;;;;16.23;13.00;;;11.10;81.20;;;;;;5022592;28;20481;-77
2022/12/03 08:55:51;;;;;;;16.55;12.60;;;11.10;81.20;;;;;;5033699;28;20105;-81
2022/12/03 08:58:30;;;;;;;14.85;10.85;;;11.10;81.20;;;;;;5030933;28;20528;-77
2022/12/03 09:01:09;;;;;;;15.57;10.75;;;11.00;81.10;;;;;;5030489;28;20489;-79
2022/12/03 09:03:45;;;;;;;21.90;13.35;;;11.10;81.20;;;;;;5029889;28;20033;-77
2022/12/03 09:06:11;;;;;;;15.23;12.13;;;11.00;81.10;;;;;;5033808;28;20481;-80
2022/12/03 09:08:36;;;;;;;15.55;11.55;;;11.10;81.20;;;;;;5036856;28;20036;-81
2022/12/03 09:11:02;;;;;;;14.73;9.60;;;11.10;81.20;;;;;;5033761;28;20024;-76
2022/12/03 09:13:27;;;;;;;15.48;10.15;;;11.00;81.10;;;;;;5036119;28;20026;-80
2022/12/03 09:15:53;;;;;;;18.08;16.00;;;11.10;81.10;;;;;;5035928;28;20017;-80
2022/12/03 09:18:18;;;;;;;19.73;17.77;;;11.10;81.20;;;;;;5038718;28;20025;-81
2022/12/03 09:20:44;;;;;;;24.05;21.98;;;11.10;81.10;;;;;;5037945;28;20033;-80
2022/12/03 09:23:09;;;;;;;19.30;17.45;;;11.10;81.10;;;;;;5035638;28;20052;-81
2022/12/03 09:25:35;;;;;;;18.95;17.08;;;11.00;81.00;;;;;;5038791;28;20076;-79
2022/12/03 09:28:00;;;;;;;19.90;18.00;;;11.10;81.00;;;;;;5035451;28;20029;-80
2022/12/03 09:30:26;;;;;;;16.73;14.93;;;11.00;81.00;;;;;;5034531;28;20440;-81
2022/12/03 09:32:52;;;;;;;23.73;21.73;;;11.10;81.10;;;;;;5034720;28;20732;-80
2022/12/03 09:35:17;;;;;;;25.73;23.35;;;11.10;81.10;;;;;;5033316;28;20477;-80
2022/12/03 09:37:43;;;;;;;17.25;12.15;;;11.10;81.10;;;;;;5033351;28;20021;-80
2022/12/03 09:40:09;;;;;;;16.45;13.43;;;11.00;80.90;;;;;;5032957;28;20064;-81
2022/12/03 09:42:36;;;;;;;19.15;14.90;;;11.10;80.90;;;;;;5040938;28;20105;-81
2022/12/03 09:45:04;;;;;;;15.75;10.85;;;11.10;81.00;;;;;;5038180;28;20540;-81
2022/12/03 09:47:30;;;;;;;14.32;10.40;;;11.10;80.90;;;;;;5041887;28;20030;-79
2022/12/03 09:49:57;;;;;;;15.32;10.85;;;11.00;80.90;;;;;;5048145;28;20030;-81
2022/12/03 09:52:26;;;;;;;15.80;10.45;;;11.00;80.90;;;;;;5038222;28;20083;-80
2022/12/03 09:54:51;;;;;;;15.95;10.55;;;11.10;80.90;;;;;;5035246;28;20029;-82
2022/12/03 09:57:18;;;;;;;15.95;9.88;;;11.10;80.90;;;;;;5039375;28;20094;-81
2022/12/03 09:59:44;;;;;;;16.23;13.07;;;11.10;80.90;;;;;;5039408;28;20485;-79
2022/12/03 10:02:29;;;;;;;15.32;12.10;;;11.10;80.90;;;;;;5032941;28;20511;-77
2022/12/03 10:04:56;;;;;;;20.20;18.15;;;11.00;81.00;;;;;;5039325;28;20030;-79
2022/12/03 10:07:23;;;;;;;24.63;22.35;;;11.10;80.90;;;;;;5034765;28;20112;-78
2022/12/03 10:09:48;;;;;;;27.33;25.15;;;11.10;81.00;;;;;;5034173;28;20037;-79
2022/12/03 10:12:19;;;;;;;26.60;24.50;;;11.10;80.90;;;;;;5036723;28;20033;-80
2022/12/03 10:14:45;;;;;;;26.60;24.35;;;11.10;80.90;;;;;;5037892;28;20037;-80
2022/12/03 10:17:11;;;;;;;25.23;23.13;;;11.10;80.80;;;;;;5035226;28;20067;-81
2022/12/03 10:19:38;;;;;;;31.63;29.20;;;11.10;80.60;;;;;;5034699;28;20032;-80
2022/12/03 10:22:03;;;;;;;43.10;40.20;;;11.10;80.60;;;;;;5031547;28;20026;-79
2022/12/03 10:24:31;;;;;;;32.20;29.83;;;11.10;80.60;;;;;;5037331;28;20029;-81
2022/12/03 10:27:03;;;;;;;14.45;9.88;;;11.10;80.60;;;;;;5037444;28;20014;-80
2022/12/03 10:29:34;;;;;;;13.80;9.07;;;11.20;80.60;;;;;;5033921;28;20026;-80
2022/12/03 10:32:05;;;;;;;13.93;9.80;;;11.20;80.70;;;;;;5038943;28;20060;-80
2022/12/03 10:34:34;;;;;;;15.90;10.23;;;11.20;81.20;;;;;;5047855;28;20124;-81
2022/12/03 10:37:12;;;;;;;17.50;9.95;;;11.20;80.70;;;;;;5032160;28;20029;-81
2022/12/03 10:39:57;;;;;;;13.52;9.48;;;11.20;80.90;;;;;;5043513;28;20032;-82
2022/12/03 10:42:25;;;;;;;14.65;9.95;;;11.10;80.80;;;;;;5040158;28;20032;-82
2022/12/03 10:45:18;;;;;;;14.35;10.00;;;11.10;80.80;;;;;;5041957;28;20101;-82
2022/12/03 10:48:02;;;;;;;15.45;9.95;;;11.10;80.90;;;;;;5041210;28;20025;-83
2022/12/03 10:50:28;;;;;;;15.23;9.93;;;11.10;81.00;;;;;;5041825;28;20052;-82
2022/12/03 10:52:53;;;;;;;14.13;9.27;;;11.10;81.00;;;;;;5038711;28;20025;-82
2022/12/03 10:55:19;;;;;;;16.05;10.27;;;11.10;81.00;;;;;;5042289;28;20025;-81
2022/12/03 10:57:44;;;;;;;16.02;10.25;;;11.10;81.10;;;;;;5040118;28;20021;-81
2022/12/03 11:00:15;;;;;;;15.63;10.45;;;11.10;81.10;;;;;;5037589;28;20021;-81
2022/12/03 11:02:41;;;;;;;16.25;10.30;;;11.00;81.00;;;;;;5038782;28;20045;-81
2022/12/03 11:05:11;;;;;;;16.70;10.48;;;11.00;81.00;;;;;;5038825;28;20022;-81
2022/12/03 11:07:38;;;;;;;14.25;9.65;;;11.10;81.10;;;;;;5038096;28;20024;-80
2022/12/03 11:10:05;;;;;;;15.32;10.60;;;11.00;81.10;;;;;;5036899;28;20045;-80
2022/12/03 11:12:34;;;;;;;15.38;10.27;;;11.00;81.10;;;;;;5018921;28;20060;-80
2022/12/03 11:15:05;;;;;;;17.05;11.25;;;11.00;81.00;;;;;;5035839;28;20025;-80
2022/12/03 11:17:49;;;;;;;15.83;10.63;;;11.00;81.00;;;;;;5038294;28;20025;-80
2022/12/03 11:20:24;;;;;;;16.40;10.52;;;11.00;81.00;;;;;;5036140;28;20063;-80
2022/12/03 11:22:53;;;;;;;15.95;10.57;;;11.10;81.00;;;;;;5046404;28;20055;-80
2022/12/03 11:25:27;;;;;;;19.70;11.10;;;11.00;80.90;;;;;;5044495;28;20029;-80
2022/12/03 11:28:14;;;;;;;21.83;11.63;;;11.00;80.60;;;;;;5034896;28;20063;-84
2022/12/03 11:30:55;;;;;;;24.08;10.63;;;11.00;80.30;;;;;;5036609;28;20554;-80
2022/12/03 11:33:27;;;;;;;;;;;11.00;80.40;;;;;;5037082;28;20078;-80
2022/12/03 11:36:04;;;;;;;24.15;11.60;;;11.00;80.40;;;;;;5035919;28;19912;-82
2022/12/03 11:38:36;;;;;;;23.58;12.35;;;11.00;80.50;;;;;;5033882;28;20074;-82
2022/12/03 11:41:13;;;;;;;24.33;11.52;;;11.00;80.40;;;;;;5034509;28;20025;-81
2022/12/03 11:43:51;;;;;;;31.73;12.82;;;11.00;80.60;;;;;;5037205;28;20026;-81
2022/12/03 11:46:39;;;;;;;25.02;11.77;;;11.00;79.30;;;;;;5017542;28;20073;-81
2022/12/03 11:49:24;;;;;;;22.85;11.30;;;11.00;79.30;;;;;;5035254;28;20456;-81
2022/12/03 11:51:50;;;;;;;24.05;12.27;;;11.00;79.70;;;;;;5034436;28;20034;-81
2022/12/03 11:54:18;;;;;;;21.05;12.27;;;11.00;79.80;;;;;;5037956;28;20546;-80
2022/12/03 11:56:46;;;;;;;21.38;12.73;;;11.00;79.90;;;;;;5041138;28;20036;-82
2022/12/03 11:59:12;;;;;;;21.42;12.55;;;11.00;80.00;;;;;;5042282;28;20021;-83
2022/12/03 12:01:40;;;;;;;27.90;12.13;;;11.00;80.00;;;;;;5035078;28;20026;-81
2022/12/03 12:04:29;;;;;;;22.05;12.15;;;11.00;80.00;;;;;;5032576;28;20049;-81
2022/12/03 12:06:55;;;;;;;19.27;11.43;;;11.00;80.10;;;;;;5032965;28;20022;-81
2022/12/03 12:09:49;;;;;;;21.08;11.90;;;11.00;80.20;;;;;;5036485;28;20040;-81
2022/12/03 12:12:25;;;;;;;26.27;12.10;;;11.00;80.20;;;;;;5040135;28;20036;-83
2022/12/03 12:14:50;;;;;;;21.95;11.82;;;11.00;80.20;;;;;;5037052;28;20029;-82
2022/12/03 12:17:48;;;;;;;20.30;11.98;;;11.00;80.30;;;;;;5036000;28;20110;-83
2022/12/03 12:20:25;;;;;;;21.73;12.57;;;11.00;80.30;;;;;;5024988;28;20049;-82
2022/12/03 12:22:53;;;;;;;20.55;11.88;;;11.00;80.30;;;;;;5036111;28;20040;-82
2022/12/03 12:25:39;;;;;;;18.58;11.52;;;11.00;80.30;;;;;;5040295;28;20596;-83
2022/12/03 12:28:05;;;;;;;19.98;11.93;;;11.00;80.30;;;;;;5035080;28;20030;-82
2022/12/03 12:30:30;;;;;;;20.77;11.90;;;11.00;80.30;;;;;;5034205;28;20583;-83
2022/12/03 12:33:09;;;;;;;18.08;12.00;;;11.00;80.20;;;;;;5032457;28;20021;-82
2022/12/03 12:35:35;;;;;;;19.05;12.07;;;11.00;80.30;;;;;;5034924;28;20028;-83
2022/12/03 12:38:09;;;;;;;19.35;11.90;;;11.00;80.30;;;;;;5033138;28;20028;-82
2022/12/03 12:40:37;;;;;;;18.42;10.90;;;11.00;80.60;;;;;;5034358;28;20032;-81
2022/12/03 12:43:10;;;;;;;21.80;12.43;;;11.00;80.60;;;;;;5037533;28;20144;-83
2022/12/03 12:45:39;;;;;;;21.98;13.63;;;11.00;79.80;;;;;;5040582;28;20026;-83
2022/12/03 12:48:30;;;;;;;19.65;12.40;;;11.00;79.90;;;;;;5041545;28;20546;-83
2022/12/03 12:51:08;;;;;;;20.80;12.60;;;11.00;79.80;;;;;;5038595;28;20088;-82
2022/12/03 12:53:35;;;;;;;20.55;12.77;;;11.00;79.60;;;;;;5039247;28;20033;-82
2022/12/03 12:56:12;;;;;;;19.83;12.20;;;11.10;79.60;;;;;;5038804;28;20026;-82